createdAt,value
2023-04-10T00:02:18.182Z,-72
2023-04-10T00:04:46.580Z,-72
2023-04-10T00:07:17.017Z,-71
2023-04-10T00:09:45.765Z,-72
2023-04-10T00:12:14.584Z,-72
2023-04-10T00:14:43.342Z,-72
2023-04-10T00:17:11.600Z,-72
2023-04-10T00:19:40.100Z,-72
2023-04-10T00:22:08.621Z,-72
2023-04-10T00:24:37.165Z,-72
2023-04-10T00:27:05.792Z,-72
2023-04-10T00:29:34.255Z,-72
2023-04-10T00:32:02.783Z,-72
2023-04-10T00:34:31.690Z,-72
2023-04-10T00:37:00.908Z,-72
2023-04-10T00:39:29.433Z,-70
2023-04-10T00:41:58.805Z,-70
2023-04-10T00:44:26.995Z,-70
2023-04-10T00:46:55.744Z,-70
2023-04-10T00:49:24.281Z,-70
2023-04-10T00:51:52.555Z,-70
2023-04-10T00:54:21.056Z,-70
2023-04-10T00:56:51.121Z,-70
2023-04-10T00:59:19.807Z,-70
2023-04-10T01:01:48.421Z,-70
2023-04-10T01:04:17.708Z,-70
2023-04-10T01:07:09.138Z,-70
2023-04-10T01:09:47.705Z,-70
2023-04-10T01:12:43.469Z,-70
2023-04-10T01:15:21.734Z,-70
2023-04-10T01:18:06.046Z,-70
2023-04-10T01:20:39.635Z,-70
2023-04-10T01:24:02.282Z,-70
2023-04-10T01:26:53.636Z,-70
2023-04-10T01:29:23.162Z,-70
2023-04-10T01:32:10.487Z,-70
2023-04-10T01:34:48.321Z,-70
2023-04-10T01:37:39.671Z,-70
2023-04-10T01:40:12.840Z,-70
2023-04-10T01:42:47.669Z,-69
2023-04-10T01:45:21.478Z,-70
2023-04-10T01:47:50.250Z,-69
2023-04-10T01:50:19.051Z,-70
2023-04-10T01:52:48.892Z,-70
2023-04-10T01:55:17.420Z,-71
2023-04-10T01:57:46.760Z,-70
2023-04-10T02:00:15.972Z,-70
2023-04-10T02:02:45.901Z,-70
2023-04-10T02:05:15.693Z,-70
2023-04-10T02:08:20.074Z,-70
2023-04-10T02:11:13.123Z,-70
2023-04-10T02:13:43.467Z,-70
2023-04-10T02:16:17.397Z,-70
2023-04-10T02:18:47.566Z,-70
2023-04-10T02:21:16.017Z,-70
2023-04-10T02:23:44.607Z,-70
2023-04-10T02:26:13.371Z,-70
2023-04-10T02:28:41.544Z,-70
2023-04-10T02:31:10.375Z,-70
2023-04-10T02:33:38.726Z,-70
2023-04-10T02:36:07.846Z,-70
2023-04-10T02:38:36.349Z,-70
2023-04-10T02:41:05.041Z,-70
2023-04-10T02:43:33.547Z,-70
2023-04-10T02:46:02.185Z,-70
2023-04-10T02:48:31.319Z,-69
2023-04-10T02:51:00.427Z,-70
2023-04-10T02:53:29.259Z,-70
2023-04-10T02:55:58.270Z,-71
2023-04-10T02:58:27.796Z,-70
2023-04-10T03:00:57.081Z,-70
2023-04-10T03:03:26.175Z,-70
2023-04-10T03:05:55.375Z,-70
2023-04-10T03:08:23.984Z,-70
2023-04-10T03:10:52.628Z,-70
2023-04-10T03:13:21.216Z,-70
2023-04-10T03:15:49.863Z,-70
2023-04-10T03:18:18.706Z,-70
2023-04-10T03:20:47.268Z,-70
2023-04-10T03:23:15.894Z,-70
2023-04-10T03:25:44.654Z,-70
2023-04-10T03:28:13.199Z,-70
2023-04-10T03:30:41.694Z,-70
2023-04-10T03:33:10.364Z,-70
2023-04-10T03:35:38.953Z,-70
2023-04-10T03:38:07.455Z,-70
2023-04-10T03:40:36.023Z,-70
2023-04-10T03:43:04.653Z,-70
2023-04-10T03:45:34.543Z,-70
2023-04-10T03:48:03.095Z,-70
2023-04-10T03:50:31.655Z,-70
2023-04-10T03:53:00.416Z,-70
2023-04-10T03:55:28.925Z,-71
2023-04-10T03:57:57.554Z,-70
2023-04-10T04:00:26.540Z,-70
2023-04-10T04:02:55.484Z,-70
2023-04-10T04:05:24.360Z,-70
2023-04-10T04:07:52.834Z,-70
2023-04-10T04:10:21.448Z,-70
2023-04-10T04:12:49.998Z,-69
2023-04-10T04:15:18.650Z,-69
2023-04-10T04:17:47.748Z,-69
2023-04-10T04:20:16.344Z,-70
2023-04-10T04:22:44.962Z,-70
2023-04-10T04:25:13.447Z,-70
2023-04-10T04:27:42.217Z,-70
2023-04-10T04:30:11.705Z,-69
2023-04-10T04:32:40.277Z,-70
2023-04-10T04:35:09.843Z,-69
2023-04-10T04:37:38.388Z,-69
2023-04-10T04:40:07.628Z,-69
2023-04-10T04:42:36.133Z,-70
2023-04-10T04:45:04.776Z,-70
2023-04-10T04:47:33.631Z,-69
2023-04-10T04:50:02.217Z,-69
2023-04-10T04:52:30.677Z,-70
2023-04-10T04:54:59.201Z,-69
2023-04-10T04:57:27.830Z,-72
2023-04-10T04:59:56.658Z,-72
2023-04-10T05:02:25.346Z,-70
2023-04-10T05:04:53.861Z,-70
2023-04-10T05:07:22.388Z,-70
2023-04-10T05:09:50.876Z,-70
2023-04-10T05:12:19.405Z,-70
2023-04-10T05:14:48.355Z,-69
2023-04-10T05:17:16.944Z,-69
2023-04-10T05:19:45.716Z,-69
2023-04-10T05:22:14.667Z,-70
2023-04-10T05:24:44.160Z,-70
2023-04-10T05:27:12.644Z,-70
2023-04-10T05:29:40.770Z,-70
2023-04-10T05:32:08.969Z,-70
2023-04-10T05:34:37.256Z,-70
2023-04-10T05:37:05.366Z,-68
2023-04-10T05:39:33.974Z,-68
2023-04-10T05:42:03.380Z,-70
2023-04-10T05:44:32.904Z,-69
2023-04-10T05:47:01.462Z,-69
2023-04-10T05:49:29.942Z,-69
2023-04-10T05:51:58.459Z,-70
2023-04-10T05:54:26.949Z,-70
2023-04-10T05:56:55.434Z,-69
2023-04-10T05:59:24.752Z,-69
2023-04-10T06:01:52.919Z,-70
2023-04-10T06:04:22.478Z,-69
2023-04-10T06:06:50.902Z,-70
2023-04-10T06:09:19.607Z,-69
2023-04-10T06:11:48.303Z,-70
2023-04-10T06:14:16.876Z,-69
2023-04-10T06:16:45.349Z,-70
2023-04-10T06:19:13.994Z,-70
2023-04-10T06:21:42.707Z,-69
2023-04-10T06:24:12.878Z,-69
2023-04-10T06:26:41.373Z,-70
2023-04-10T06:29:10.681Z,-70
2023-04-10T06:31:39.218Z,-69
2023-04-10T06:34:07.820Z,-69
2023-04-10T06:36:36.344Z,-69
2023-04-10T06:39:04.548Z,-69
2023-04-10T06:41:33.205Z,-69
2023-04-10T06:44:03.245Z,-69
2023-04-10T06:46:32.357Z,-69
2023-04-10T06:49:00.754Z,-70
2023-04-10T06:51:29.268Z,-69
2023-04-10T06:53:57.583Z,-69
2023-04-10T06:56:26.045Z,-69
2023-04-10T06:58:54.348Z,-69
2023-04-10T07:01:22.946Z,-70
2023-04-10T07:03:51.607Z,-69
2023-04-10T07:06:20.275Z,-69
2023-04-10T07:08:51.318Z,-69
2023-04-10T07:11:20.065Z,-70
2023-04-10T07:13:48.864Z,-69
2023-04-10T07:16:17.558Z,-70
2023-04-10T07:18:47.536Z,-69
2023-04-10T07:21:16.551Z,-70
2023-04-10T07:23:45.041Z,-70
2023-04-10T07:26:13.605Z,-69
2023-04-10T07:28:42.037Z,-69
2023-04-10T07:31:10.763Z,-70
2023-04-10T07:33:40.089Z,-70
2023-04-10T07:36:09.214Z,-70
2023-04-10T07:38:38.809Z,-70
2023-04-10T07:41:07.683Z,-70
2023-04-10T07:43:36.440Z,-70
2023-04-10T07:46:05.579Z,-68
2023-04-10T07:48:34.328Z,-70
2023-04-10T07:51:03.175Z,-70
2023-04-10T07:53:31.535Z,-70
2023-04-10T07:56:00.344Z,-70
2023-04-10T07:58:28.676Z,-70
2023-04-10T08:00:57.290Z,-69
2023-04-10T08:03:26.414Z,-70
2023-04-10T08:05:55.335Z,-70
2023-04-10T08:08:23.988Z,-69
2023-04-10T08:10:52.521Z,-70
2023-04-10T08:13:21.276Z,-69
2023-04-10T08:15:49.385Z,-70
2023-04-10T08:18:17.927Z,-69
2023-04-10T08:20:46.458Z,-70
2023-04-10T08:23:20.255Z,-69
2023-04-10T08:25:49.080Z,-70
2023-04-10T08:28:17.673Z,-69
2023-04-10T08:30:46.375Z,-69
2023-04-10T08:33:14.711Z,-69
2023-04-10T08:35:43.351Z,-69
2023-04-10T08:38:13.964Z,-69
2023-04-10T08:40:44.787Z,-69
2023-04-10T08:43:13.606Z,-69
2023-04-10T08:45:42.836Z,-69
2023-04-10T08:48:12.878Z,-69
2023-04-10T08:50:47.112Z,-69
2023-04-10T08:53:16.723Z,-69
2023-04-10T08:55:47.102Z,-69
2023-04-10T08:58:15.836Z,-69
2023-04-10T09:00:44.373Z,-69
2023-04-10T09:03:15.338Z,-66
2023-04-10T09:05:44.004Z,-69
2023-04-10T09:08:13.658Z,-68
2023-04-10T09:10:42.272Z,-68
2023-04-10T09:13:10.873Z,-68
2023-04-10T09:16:00.419Z,-69
2023-04-10T09:18:52.678Z,-68
2023-04-10T09:21:23.659Z,-69
2023-04-10T09:24:02.102Z,-68
2023-04-10T09:26:34.382Z,-67
2023-04-10T09:29:08.265Z,-68
2023-04-10T09:31:41.969Z,-68
2023-04-10T09:34:23.855Z,-68
2023-04-10T09:37:01.433Z,-68
2023-04-10T09:39:41.274Z,-68
2023-04-10T09:42:10.088Z,-68
2023-04-10T09:44:41.536Z,-68
2023-04-10T09:47:15.840Z,-69
2023-04-10T09:49:55.532Z,-68
2023-04-10T09:52:38.416Z,-69
2023-04-10T09:55:08.945Z,-69
2023-04-10T09:57:37.780Z,-66
2023-04-10T10:00:09.579Z,-68
2023-04-10T10:02:40.162Z,-67
2023-04-10T10:05:10.256Z,-67
2023-04-10T10:07:39.106Z,-67
2023-04-10T10:10:09.103Z,-69
2023-04-10T10:12:47.233Z,-66
2023-04-10T10:15:36.759Z,-66
2023-04-10T10:18:17.030Z,-67
2023-04-10T10:20:47.579Z,-67
2023-04-10T10:23:19.178Z,-67
2023-04-10T10:25:47.834Z,-66
2023-04-10T10:28:16.558Z,-67
2023-04-10T10:30:45.349Z,-68
2023-04-10T10:33:15.431Z,-67
2023-04-10T10:35:44.094Z,-67
2023-04-10T10:38:12.844Z,-67
2023-04-10T10:41:02.362Z,-66
2023-04-10T10:43:57.294Z,-69
2023-04-10T10:47:02.713Z,-68
2023-04-10T10:49:56.941Z,-68
2023-04-10T10:52:53.914Z,-68
2023-04-10T10:55:25.065Z,-69
2023-04-10T10:57:59.316Z,-69
2023-04-10T11:00:54.999Z,-69
2023-04-10T11:03:23.888Z,-69
2023-04-10T11:05:56.413Z,-69
2023-04-10T11:08:39.997Z,-69
2023-04-10T11:11:11.020Z,-69
2023-04-10T11:13:45.112Z,-69
2023-04-10T11:16:13.915Z,-69
2023-04-10T11:18:56.055Z,-69
2023-04-10T11:21:35.624Z,-69
2023-04-10T11:24:06.302Z,-69
2023-04-10T11:26:43.343Z,-69
2023-04-10T11:29:14.740Z,-69
2023-04-10T11:31:43.364Z,-69
2023-04-10T11:34:12.852Z,-70
2023-04-10T11:36:43.542Z,-70
2023-04-10T11:39:16.014Z,-73
2023-04-10T11:41:46.862Z,-73
2023-04-10T11:44:17.648Z,-71
2023-04-10T11:46:47.882Z,-72
2023-04-10T11:49:31.852Z,-73
2023-04-10T11:52:00.664Z,-72
2023-04-10T11:54:30.582Z,-73
2023-04-10T11:57:03.386Z,-73
2023-04-10T11:59:34.573Z,-71
2023-04-10T12:02:14.759Z,-72
2023-04-10T12:04:45.065Z,-72
2023-04-10T12:07:14.052Z,-72
2023-04-10T12:09:42.980Z,-72
2023-04-10T12:12:11.614Z,-72
2023-04-10T12:14:41.341Z,-72
2023-04-10T12:17:13.357Z,-70
2023-04-10T12:19:42.276Z,-72
2023-04-10T12:22:14.063Z,-72
2023-04-10T12:24:45.543Z,-72
2023-04-10T12:27:31.837Z,-72
2023-04-10T12:30:00.487Z,-71
2023-04-10T12:32:29.067Z,-72
2023-04-10T12:35:01.554Z,-71
2023-04-10T12:37:54.558Z,-71
2023-04-10T12:40:23.258Z,-72
2023-04-10T12:42:51.830Z,-72
2023-04-10T12:45:20.388Z,-72
2023-04-10T12:47:53.340Z,-72
2023-04-10T12:50:22.361Z,-72
2023-04-10T12:53:08.204Z,-72
2023-04-10T12:55:37.633Z,-72
2023-04-10T12:58:22.580Z,-70
2023-04-10T13:00:51.296Z,-73
2023-04-10T13:03:19.966Z,-72
2023-04-10T13:05:48.781Z,-72
2023-04-10T13:08:17.582Z,-69
2023-04-10T13:10:46.225Z,-69
2023-04-10T13:13:15.170Z,-72
2023-04-10T13:15:43.860Z,-69
2023-04-10T13:18:12.765Z,-70
2023-04-10T13:20:42.200Z,-71
2023-04-10T13:23:10.741Z,-72
2023-04-10T13:25:42.891Z,-72
2023-04-10T13:28:11.781Z,-72
2023-04-10T13:30:43.016Z,-71
2023-04-10T13:33:11.793Z,-72
2023-04-10T13:35:41.249Z,-71
2023-04-10T13:38:11.972Z,-73
2023-04-10T13:40:40.645Z,-72
2023-04-10T13:43:09.132Z,-73
2023-04-10T13:45:37.688Z,-72
2023-04-10T13:48:07.517Z,-72
2023-04-10T13:50:36.430Z,-72
2023-04-10T13:53:05.037Z,-72
2023-04-10T13:55:33.489Z,-72
2023-04-10T13:58:02.271Z,-72
2023-04-10T14:00:31.231Z,-72
2023-04-10T14:02:59.862Z,-74
2023-04-10T14:05:28.435Z,-72
2023-04-10T14:07:57.241Z,-69
2023-04-10T14:10:25.930Z,-70
2023-04-10T14:12:54.437Z,-70
2023-04-10T14:15:23.368Z,-70
2023-04-10T14:17:51.939Z,-69
2023-04-10T14:20:20.471Z,-69
2023-04-10T14:22:48.993Z,-70
2023-04-10T14:25:17.568Z,-70
2023-04-10T14:27:46.152Z,-69
2023-04-10T14:30:15.067Z,-69
2023-04-10T14:32:43.988Z,-71
2023-04-10T14:35:12.945Z,-70
2023-04-10T14:37:41.389Z,-69
2023-04-10T14:40:10.563Z,-69
2023-04-10T14:42:39.059Z,-68
2023-04-10T14:45:07.940Z,-69
2023-04-10T14:47:36.650Z,-70
2023-04-10T14:50:05.462Z,-69
2023-04-10T14:52:34.312Z,-70
2023-04-10T14:55:02.868Z,-69
2023-04-10T14:57:31.436Z,-69
2023-04-10T15:00:01.498Z,-69
2023-04-10T15:02:31.206Z,-70
2023-04-10T15:04:59.846Z,-70
2023-04-10T15:07:28.410Z,-70
2023-04-10T15:10:00.436Z,-70
2023-04-10T15:12:29.233Z,-70
2023-04-10T15:14:57.794Z,-70
2023-04-10T15:17:26.414Z,-69
2023-04-10T15:19:54.974Z,-70
2023-04-10T15:22:23.482Z,-70
2023-04-10T15:24:52.350Z,-69
2023-04-10T15:27:21.760Z,-68
2023-04-10T15:29:50.420Z,-70
2023-04-10T15:32:18.719Z,-69
2023-04-10T15:34:47.221Z,-69
2023-04-10T15:37:15.726Z,-69
2023-04-10T15:39:44.233Z,-69
2023-04-10T15:42:12.862Z,-69
2023-04-10T15:44:41.343Z,-69
2023-04-10T15:47:09.879Z,-70
2023-04-10T15:49:38.988Z,-70
2023-04-10T15:52:10.187Z,-69
2023-04-10T15:54:40.601Z,-69
2023-04-10T15:57:09.134Z,-69
2023-04-10T15:59:38.454Z,-69
2023-04-10T16:02:07.234Z,-68
2023-04-10T16:04:36.416Z,-69
2023-04-10T16:07:05.100Z,-69
2023-04-10T16:09:33.733Z,-69
2023-04-10T16:12:02.174Z,-68
2023-04-10T16:14:30.712Z,-69
2023-04-10T16:16:59.180Z,-69
2023-04-10T16:19:30.730Z,-69
2023-04-10T16:21:59.614Z,-69
2023-04-10T16:24:28.122Z,-69
2023-04-10T16:26:56.758Z,-69
2023-04-10T16:29:25.637Z,-70
2023-04-10T16:31:54.132Z,-70
2023-04-10T16:34:22.700Z,-70
2023-04-10T16:36:51.307Z,-69
2023-04-10T16:39:19.824Z,-70
2023-04-10T16:41:48.474Z,-69
2023-04-10T16:44:17.325Z,-69
2023-04-10T16:46:46.522Z,-69
2023-04-10T16:49:15.114Z,-69
2023-04-10T16:51:43.684Z,-70
2023-04-10T16:54:12.366Z,-69
2023-04-10T16:56:40.913Z,-69
2023-04-10T16:59:09.578Z,-68
2023-04-10T17:01:39.847Z,-69
2023-04-10T17:04:09.336Z,-69
2023-04-10T17:06:38.173Z,-69
2023-04-10T17:09:06.700Z,-69
2023-04-10T17:11:35.217Z,-69
2023-04-10T17:14:04.521Z,-69
2023-04-10T17:16:33.088Z,-69
2023-04-10T17:19:01.682Z,-70
2023-04-10T17:21:31.463Z,-68
2023-04-10T17:24:00.161Z,-69
2023-04-10T17:26:28.740Z,-70
2023-04-10T17:28:57.500Z,-69
2023-04-10T17:31:26.016Z,-69
2023-04-10T17:33:54.731Z,-70
2023-04-10T17:36:23.434Z,-69
2023-04-10T17:38:54.191Z,-69
2023-04-10T17:41:23.028Z,-69
2023-04-10T17:43:51.928Z,-69
2023-04-10T17:46:20.509Z,-69
2023-04-10T17:48:49.062Z,-69
2023-04-10T17:51:17.544Z,-69
2023-04-10T17:53:46.260Z,-69
2023-04-10T17:56:20.841Z,-69
2023-04-10T17:58:49.603Z,-68
2023-04-10T18:01:30.274Z,-69
2023-04-10T18:03:59.806Z,-69
2023-04-10T18:06:28.336Z,-68
2023-04-10T18:08:59.669Z,-69
2023-04-10T18:11:28.549Z,-68
2023-04-10T18:13:57.074Z,-69
2023-04-10T18:16:25.910Z,-69
2023-04-10T18:18:54.913Z,-69
2023-04-10T18:21:23.510Z,-70
2023-04-10T18:23:52.003Z,-68
2023-04-10T18:26:21.145Z,-69
2023-04-10T18:28:49.705Z,-69
2023-04-10T18:31:19.176Z,-69
2023-04-10T18:33:53.348Z,-69
2023-04-10T18:36:28.894Z,-69
2023-04-10T18:38:58.197Z,-69
2023-04-10T18:41:26.667Z,-69
2023-04-10T18:44:04.189Z,-68
2023-04-10T18:46:34.225Z,-69
2023-04-10T18:49:03.423Z,-69
2023-04-10T18:51:35.369Z,-68
2023-04-10T18:54:04.964Z,-69
2023-04-10T18:56:35.698Z,-69
2023-04-10T18:59:05.271Z,-68
2023-04-10T19:01:34.048Z,-68
2023-04-10T19:04:02.997Z,-68
2023-04-10T19:06:32.476Z,-69
2023-04-10T19:09:00.891Z,-69
2023-04-10T19:11:29.206Z,-69
2023-04-10T19:13:57.953Z,-69
2023-04-10T19:16:26.422Z,-68
2023-04-10T19:18:57.698Z,-68
2023-04-10T19:21:25.991Z,-69
2023-04-10T19:23:54.886Z,-67
2023-04-10T19:26:23.414Z,-68
2023-04-10T19:28:51.694Z,-69
2023-04-10T19:31:20.928Z,-69
2023-04-10T19:33:49.159Z,-68
2023-04-10T19:36:20.533Z,-68
2023-04-10T19:38:51.218Z,-68
2023-04-10T19:41:19.518Z,-68
2023-04-10T19:43:48.060Z,-68
2023-04-10T19:46:20.377Z,-67
2023-04-10T19:48:51.940Z,-68
2023-04-10T19:51:20.518Z,-68
2023-04-10T19:53:49.007Z,-69
2023-04-10T19:56:17.892Z,-69
2023-04-10T19:58:47.107Z,-68
2023-04-10T20:01:15.785Z,-71
2023-04-10T20:03:44.305Z,-68
2023-04-10T20:06:13.199Z,-69
2023-04-10T20:08:41.521Z,-69
2023-04-10T20:11:10.025Z,-69
2023-04-10T20:13:39.295Z,-68
2023-04-10T20:16:08.667Z,-69
2023-04-10T20:18:37.727Z,-68
2023-04-10T20:21:07.884Z,-69
2023-04-10T20:23:36.222Z,-69
2023-04-10T20:26:04.771Z,-69
2023-04-10T20:28:33.278Z,-68
2023-04-10T20:31:01.586Z,-69
2023-04-10T20:33:29.811Z,-69
2023-04-10T20:35:58.513Z,-69
2023-04-10T20:38:27.088Z,-69
2023-04-10T20:40:55.597Z,-70
2023-04-10T20:43:23.686Z,-69
2023-04-10T20:45:51.773Z,-70
2023-04-10T20:48:20.480Z,-70
2023-04-10T20:50:49.785Z,-70
2023-04-10T20:53:18.272Z,-68
2023-04-10T20:55:46.792Z,-68
2023-04-10T20:58:15.004Z,-69
2023-04-10T21:00:43.600Z,-68
2023-04-10T21:03:12.199Z,-68
2023-04-10T21:05:42.676Z,-67
2023-04-10T21:08:12.414Z,-68
2023-04-10T21:10:44.254Z,-68
2023-04-10T21:13:17.195Z,-67
2023-04-10T21:15:45.446Z,-68
2023-04-10T21:18:13.515Z,-68
2023-04-10T21:20:43.377Z,-68
2023-04-10T21:23:11.910Z,-68
2023-04-10T21:25:40.474Z,-68
2023-04-10T21:28:09.395Z,-67
2023-04-10T21:30:37.625Z,-67
2023-04-10T21:33:05.964Z,-68
2023-04-10T21:35:34.485Z,-68
2023-04-10T21:38:02.803Z,-69
2023-04-10T21:40:34.404Z,-68
2023-04-10T21:43:03.562Z,-69
2023-04-10T21:45:34.484Z,-68
2023-04-10T21:48:02.808Z,-69
2023-04-10T21:50:31.002Z,-68
2023-04-10T21:53:00.182Z,-70
2023-04-10T21:55:28.534Z,-68
2023-04-10T21:57:57.554Z,-68
2023-04-10T22:00:25.746Z,-68
2023-04-10T22:02:54.431Z,-68
2023-04-10T22:05:24.369Z,-68
2023-04-10T22:07:53.180Z,-68
2023-04-10T22:10:21.937Z,-68
2023-04-10T22:12:50.134Z,-68
2023-04-10T22:15:18.879Z,-68
2023-04-10T22:17:47.453Z,-68
2023-04-10T22:20:16.118Z,-68
2023-04-10T22:22:44.820Z,-68
2023-04-10T22:25:13.357Z,-68
2023-04-10T22:27:41.815Z,-68
2023-04-10T22:30:10.972Z,-68
2023-04-10T22:32:39.799Z,-68
2023-04-10T22:35:09.286Z,-68
2023-04-10T22:37:37.827Z,-68
2023-04-10T22:40:07.192Z,-68
2023-04-10T22:42:35.513Z,-68
2023-04-10T22:45:04.597Z,-68
2023-04-10T22:47:33.055Z,-68
2023-04-10T22:50:01.574Z,-68
2023-04-10T22:52:30.281Z,-68
2023-04-10T22:54:59.006Z,-68
2023-04-10T22:57:27.620Z,-68
2023-04-10T22:59:56.253Z,-68
2023-04-10T23:02:25.382Z,-68
2023-04-10T23:04:54.273Z,-68
2023-04-10T23:07:22.915Z,-67
2023-04-10T23:09:51.206Z,-68
2023-04-10T23:12:19.314Z,-69
2023-04-10T23:14:47.759Z,-68
2023-04-10T23:17:16.252Z,-68
2023-04-10T23:19:44.344Z,-68
2023-04-10T23:22:12.665Z,-68
2023-04-10T23:24:41.098Z,-69
2023-04-10T23:27:09.773Z,-68
2023-04-10T23:29:38.291Z,-68
2023-04-10T23:32:07.953Z,-68
2023-04-10T23:34:36.398Z,-68
2023-04-10T23:37:04.524Z,-68
2023-04-10T23:39:33.043Z,-70
2023-04-10T23:42:02.273Z,-70
2023-04-10T23:44:30.886Z,-70
2023-04-10T23:46:59.412Z,-70
2023-04-10T23:49:28.024Z,-70
2023-04-10T23:51:57.044Z,-70
2023-04-10T23:54:25.741Z,-70
2023-04-10T23:56:54.297Z,-70
2023-04-10T23:59:22.872Z,-71
